Morata de Tajuna, Spain
Current Conditions -  °F | °C
As of 8:00 PM on Thursday 23 Oct 2014 (Local Time) from LEGT Reporting Station
Clear Clear  
Wind Chill: 70°   Ceiling: Unl
Heat Index: 70°   Visibility: 6mi
Dew Point: 43°   Wind: 6mph
Humidity: 38%   Direction: 330°NNW
Pressure: 30.18"   Gusts: NA
Location:  40.23°N, 3.43°W
Report Text: LEGT 231800Z 33005KT CAVOK 21/06 Q1022
Loading
Personal Weather Stations






























Interactive Weather Map
Tropical Storm Tracking
New forecast layout! Learn more

10-Day Weather Forecast

Advertisements
Track Severe Weather on mobile